Aérodrome d'Arcachon-La Teste-de-Buch

LFCH · Aquitania-Limosino-Poitou-Charentes, Francia

1 ottobre 2022

Tempo Codice Tempo metereologico Temp. Vista Base nuvolosa Vento METAR/SPECI
20:00
M
19 °C 10 km+ 1.100 ft 260° 260° 6 kt METAR LFBC 011800Z AUTO 26006KT 9999 BKN011 OVC066 19/17 Q1025 TEMPO 2500 BR
19:30
M
19 °C 10 km+ 1.000 ft 250° 250° 7 kt METAR LFBC 011730Z AUTO 25007KT 210V280 9999 OVC010 19/17 Q1025 TEMPO 2500 BR
19:00
M
19 °C 10 km+ 1.100 ft 250° 250° 8 kt METAR LFBC 011700Z AUTO 25008KT 220V290 9999 BKN011 OVC017 19/17 Q1025 TEMPO 2500 BR
18:30
M
19 °C 10 km+ 1.000 ft 250° 250° 8 kt METAR LFBC 011630Z AUTO 25008KT 210V290 9999 OVC010 19/18 Q1024 TEMPO 2500 BR
18:00
M
19 °C 10 km+ 1.000 ft 250° 250° 8 kt METAR LFBC 011600Z AUTO 25008KT 220V280 9999 OVC010 19/18 Q1024 BECMG DZ
17:30
M
19 °C 10 km+ 1.100 ft 240° 240° 8 kt METAR LFBC 011530Z AUTO 24008KT 220V280 9999 OVC011 19/18 Q1024 BECMG DZ
17:00
M
19 °C 10 km+ 1.200 ft 240° 240° 10 kt METAR LFBC 011500Z AUTO 24010KT 210V270 9999 OVC012 19/18 Q1024 BECMG DZ
16:30
M
18 °C 5 km 1.000 ft 250° 250° 11 kt METAR LFBC 011430Z AUTO 25011KT 220V280 5000 DZ BR BKN010 BKN015 OVC027 18/17 Q1024 BECMG 26015G25KT NSW
16:00
I
19 °C 2,6 km 700 ft 250° 250° 10 kt METAR LFBC 011400Z AUTO 25010KT 210V280 2600 DZ BR BKN007 OVC017 19/18 Q1024 BECMG 26015G25KT 9999 NSW BKN010 OVC025
15:30
I
19 °C 4 km 700 ft 240° 240° 11 kt METAR LFBC 011330Z AUTO 24011KT 4000 DZ BR OVC007 19/18 Q1024 BECMG 26015G25KT 9999 NSW BKN010 OVC025
15:00
I
19 °C 3,8 km 800 ft 240° 240° 11 kt METAR LFBC 011300Z AUTO 24011KT 210V270 3800 -RA BR OVC008 19/18 Q1023 BECMG 26015G25KT 9999 NSW BKN010 OVC025
14:30
M
19 °C 10 km+ 1.000 ft 240° 240° 14 kt METAR LFBC 011230Z AUTO 24014KT 210V270 9999 BKN010 OVC016 19/18 Q1023 BECMG 26015G25KT
14:00
M
20 °C 10 km+ 1.000 ft 250° 250° 14 kt METAR LFBC 011200Z AUTO 25014KT 210V270 9999 BKN010 BKN044 OVC064 20/18 Q1023 BECMG 26015G25KT
13:30
I
19 °C 10 km+ 900 ft 240° 240° 13 - 24 kt METAR LFBC 011130Z AUTO 24013G24KT 9999 OVC009 19/18 Q1023 BECMG BKN010 OVC025
13:00
I
19 °C 10 km+ 800 ft 250° 250° 11 - 22 kt METAR LFBC 011100Z AUTO 25011G22KT 220V290 9999 BKN008 OVC013 19/17 Q1023 BECMG BKN010 OVC025
12:30
I
18 °C 5 km 700 ft 240° 240° 13 kt METAR LFBC 011030Z AUTO 24013KT 210V280 5000 -RA BR OVC007 18/17 Q1023 BECMG 26015G25KT BKN010 OVC025
12:00
I
18 °C 2,3 km 700 ft 250° 250° 13 kt METAR LFBC 011000Z AUTO 25013KT 210V280 2300 -RA BR OVC007 18/17 Q1022 BECMG 26015G25KT 9999 NSW BKN010 OVC025
11:30
I
18 °C 4,1 km 1.000 ft 250° 250° 11 kt METAR LFBC 010930Z AUTO 25011KT 220V280 9999 4100 -RADZ OVC010 18/17 Q1022 BECMG 26015G25KT
11:00
M
19 °C 10 km+ 1.100 ft 240° 240° 10 kt METAR LFBC 010900Z AUTO 24010KT 210V280 9999 BKN011 OVC020 19/17 Q1022 BECMG 26015G25KT
10:30
M
19 °C 10 km+ 1.100 ft 250° 250° 10 kt METAR LFBC 010830Z AUTO 25010KT 210V270 9999 BKN011 BKN027 OVC032 19/17 Q1021 BECMG 26015G25KT
10:00
M
18 °C 10 km+ 1.000 ft 250° 250° 11 kt METAR LFBC 010800Z AUTO 25011KT 200V270 9999 BKN010 OVC026 18/17 Q1021 TEMPO 4800 RA
09:30
M
17 °C 10 km+ 1.100 ft 250° 250° 11 kt METAR LFBC 010730Z AUTO 25011KT 220V280 9999 OVC011 17/16 Q1021 TEMPO 4800 RA BKN008 OVC020
09:00
I
17 °C 10 km+ 900 ft 240° 240° 12 - 22 kt METAR LFBC 010700Z AUTO 24012G22KT 210V270 9999 OVC009 17/16 Q1020 TEMPO 4800 RA
08:30
I
17 °C 5 km 500 ft 240° 240° 13 kt METAR LFBC 010630Z AUTO 24013KT 220V280 5000 -DZ BR OVC005 17/16 Q1020 TEMPO RA
08:00
I
16 °C 4,6 km 600 ft 240° 240° 12 kt METAR LFBC 010600Z AUTO 24012KT 4600 DZ BR OVC006 16/16 Q1020 TEMPO RA
07:30
I
16 °C 3,9 km 600 ft 250° 250° 13 kt METAR LFBC 010530Z AUTO 25013KT 3900 DZ BR BKN006 OVC013 16/16 Q1019 TEMPO RA
07:00
M
17 °C 6 km 1.400 ft 240° 240° 14 kt METAR LFBC 010500Z AUTO 24014KT 210V270 6000 DZ OVC014 17/15 Q1019 TEMPO 4800 RA BKN008 OVC020
06:30
M
17 °C 10 km+ 1.700 ft 230° 230° 12 kt METAR LFBC 010430Z AUTO 23012KT 210V270 9999 OVC017 17/15 Q1019 TEMPO 4800 RA BKN008 OVC020
06:00
M
17 °C 10 km+ 1.900 ft 240° 240° 12 kt METAR LFBC 010400Z AUTO 24012KT 9999 BKN019 BKN026 OVC037 17/15 Q1018 TEMPO 4800 RA BKN008 OVC020
05:30
V
17 °C 10 km+ 3.700 ft 240° 240° 11 kt METAR LFBC 010330Z AUTO 24011KT 9999 FEW014 OVC037 17/15 Q1018 TEMPO 4800 RA BKN008 OVC020
05:00
M
17 °C 6 km 1.700 ft 250° 250° 12 kt METAR LFBC 010300Z AUTO 25012KT 220V280 6000 -RADZ BKN017 BKN022 OVC027 17/15 Q1018 TEMPO 4800 RA BKN008 OVC020
04:30
M
18 °C 10 km+ 2.500 ft 230° 230° 11 kt METAR LFBC 010230Z AUTO 23011KT 210V270 9999 BKN025 BKN037 BKN043 18/14 Q1018 TEMPO 4800 RA BKN008 OVC020
04:00
M
18 °C 10 km+ 2.500 ft 240° 240° 10 kt METAR LFBC 010200Z AUTO 24010KT 9999 BKN025 BKN034 OVC052 18/14 Q1018 BECMG BKN014
03:30
V
17 °C 10 km+ 16.000 ft 220° 220° 9 kt METAR LFBC 010130Z AUTO 22009KT 9999 FEW023 BKN160 OVC180 17/14 Q1018 BECMG BKN014
03:00
V
17 °C 10 km+ 5.000 ft 220° 220° 11 kt METAR LFBC 010100Z AUTO 22011KT 9999 FEW026 BKN050 BKN130 17/14 Q1018 BECMG BKN014
02:30
M
17 °C 10 km+ 2.900 ft 240° 240° 6 kt METAR LFBC 010030Z AUTO 24006KT 210V270 9999 BKN029 OVC043 17/13 Q1018 BECMG BKN014
02:00
V
17 °C 10 km+ 12.000 ft 240° 240° 6 kt METAR LFBC 010000Z AUTO 24006KT 9999 -RA FEW033 OVC120 17/13 Q1018 NOSIG
01:30
V
17 °C 10 km+ 12.000 ft 240° 240° 5 kt METAR LFBC 302330Z AUTO 24005KT 200V270 9999 FEW028 SCT046 OVC120 17/13 Q1018 NOSIG
01:00
V
17 °C 10 km+ 11.000 ft 240° 240° 5 kt METAR LFBC 302300Z AUTO 24005KT 9999 FEW036 SCT052 BKN110 17/13 Q1018 NOSIG
00:30
M
15 °C 10 km+ 2.800 ft 170° 170° 8 kt METAR LFBC 302230Z AUTO 17008KT 9999 FEW023 BKN028 BKN035 15/13 Q1018 NOSIG
00:00
V
16 °C 10 km+ 3.000 ft 180° 180° 6 kt METAR LFBC 302200Z AUTO 18006KT 9999 FEW025/// BKN030/// BKN044/// //////CB 16/13 Q1018 BECMG SCT035 SCT120

30 settembre 2022

Tempo Codice Tempo metereologico Temp. Vista Base nuvolosa Vento METAR/SPECI
23:30
V
16 °C 10 km+ 3.100 ft 180° 180° 7 kt METAR LFBC 302130Z AUTO 18007KT 9999 BKN031 OVC130 16/13 Q1018 NOSIG
23:00
V
15 °C 10 km+ 3.400 ft 170° 170° 7 kt METAR LFBC 302100Z AUTO 17007KT 9999 FEW029 BKN034 BKN120 15/12 Q1018 NOSIG
22:30
V
16 °C 10 km+ 3.600 ft 210° 210° 8 kt METAR LFBC 302030Z AUTO 21008KT 9999 BKN036 OVC043 16/12 Q1018 NOSIG
22:00
V
16 °C 10 km+ 4.400 ft 230° 230° 5 kt METAR LFBC 302000Z AUTO 23005KT 9999 FEW032 BKN044 OVC058 16/11 Q1018 NOSIG
21:30
V
16 °C 10 km+ 4.900 ft 240° 240° 5 kt METAR LFBC 301930Z AUTO 24005KT 9999 BKN049 16/11 Q1018 NOSIG
21:00
V
15 °C 10 km+ 5.000 ft 240° 240° 4 kt METAR LFBC 301900Z AUTO 24004KT 9999 FEW032 BKN050 OVC160 15/11 Q1018 NOSIG
20:30
V
15 °C 10 km+ - 260° 260° 3 kt METAR LFBC 301830Z AUTO 26003KT CAVOK 15/10 Q1018 NOSIG
20:00
V
15 °C 10 km+ - 240° 240° 3 kt METAR LFBC 301800Z AUTO 24003KT 9999 FEW036 SCT062 15/10 Q1017 NOSIG
19:30
V
16 °C 10 km+ - 260° 260° 4 kt METAR LFBC 301730Z AUTO 26004KT 220V290 9999 SCT037 16/10 Q1018 NOSIG
19:00
V
16 °C 10 km+ - 270° 270° 6 kt METAR LFBC 301700Z AUTO 27006KT 240V300 9999 FEW034 16/09 Q1017 NOSIG
18:30
V
17 °C 10 km+ 19.000 ft 280° 280° 8 kt METAR LFBC 301630Z AUTO 28008KT 240V310 9999 FEW034 BKN190 17/09 Q1017 NOSIG
18:00
V
18 °C 10 km+ - 280° 280° 7 kt METAR LFBC 301600Z AUTO 28007KT 230V330 CAVOK 18/09 Q1017 NOSIG
17:30
V
18 °C 10 km+ - 280° 280° 8 kt METAR LFBC 301530Z AUTO 28008KT 240V320 CAVOK 18/08 Q1016 NOSIG
17:00
V
18 °C 10 km+ - 290° 290° 8 kt METAR LFBC 301500Z AUTO 29008KT 260V330 CAVOK 18/08 Q1016 NOSIG
16:30
V
19 °C 10 km+ - 280° 280° 8 kt METAR LFBC 301430Z AUTO 28008KT 250V310 CAVOK 19/08 Q1016 NOSIG
16:00
V
19 °C 10 km+ - 290° 290° 7 kt METAR LFBC 301400Z AUTO 29007KT 240V330 CAVOK 19/08 Q1016 NOSIG
15:30
V
18 °C 10 km+ - 320° 320° 7 kt METAR LFBC 301330Z AUTO 32007KT 290V030 CAVOK 18/06 Q1016 NOSIG
15:00
V
19 °C 10 km+ - 320° 320° 6 kt METAR LFBC 301300Z AUTO 32006KT 250V360 CAVOK 19/07 Q1016 NOSIG
14:30
V
18 °C 10 km+ - 280° 280° 6 kt METAR LFBC 301230Z AUTO 28006KT 170V310 9999 FEW037 18/08 Q1016 NOSIG
14:00
V
18 °C 10 km+ - 330° 330° 6 kt METAR LFBC 301200Z AUTO 33006KT 230V020 9999 FEW033 18/09 Q1016 NOSIG
13:30
V
17 °C 10 km+ 3.300 ft 330° 330° 7 kt METAR LFBC 301130Z AUTO 33007KT 290V360 9999 BKN033 17/10 Q1016 NOSIG
13:00
V
17 °C 10 km+ 4.000 ft 310° 310° 6 kt METAR LFBC 301100Z AUTO 31006KT 280V340 9999 SCT032 BKN040 17/09 Q1016 NOSIG
12:30
V
17 °C 10 km+ - 010° 010° 7 kt METAR LFBC 301030Z AUTO 01007KT 330V050 9999 FEW030 17/09 Q1016 NOSIG
12:00
V
17 °C 10 km+ - 360° 360° 7 kt METAR LFBC 301000Z AUTO 36007KT 9999 FEW026 17/10 Q1015 NOSIG
11:30
V
16 °C 10 km+ - 020° 020° 8 kt METAR LFBC 300930Z AUTO 02008KT 340V050 9999 FEW021 16/11 Q1015 NOSIG
11:00
V
16 °C 10 km+ - Var Var 3 kt METAR LFBC 300900Z AUTO VRB03KT CAVOK 16/11 Q1015 NOSIG
10:30
V
14 °C 10 km+ - 020° 020° 3 kt METAR LFBC 300830Z AUTO 02003KT 350V060 CAVOK 14/11 Q1014 NOSIG
10:00
V
13 °C 10 km+ - 010° 010° 3 kt METAR LFBC 300800Z AUTO 01003KT 330V040 CAVOK 13/11 Q1014 NOSIG
09:30
V
11 °C 10 km+ - 020° 020° 3 kt METAR LFBC 300730Z AUTO 02003KT CAVOK 11/11 Q1014 NOSIG
09:00
V
10 °C 10 km+ - 360° 360° 3 kt METAR LFBC 300700Z AUTO 36003KT CAVOK 10/10 Q1013 NOSIG
08:30
V
9 °C 10 km+ - 010° 010° 3 kt METAR LFBC 300630Z AUTO 01003KT CAVOK 09/09 Q1012 NOSIG
08:00
V
9 °C 10 km+ - 020° 020° 4 kt METAR LFBC 300600Z AUTO 02004KT CAVOK 09/09 Q1012 TEMPO 3000 BR
07:30
V
9 °C 10 km+ - 360° 360° 4 kt METAR LFBC 300530Z AUTO 36004KT 9999 //////CB 09/09 Q1012 TEMPO 2000 BR BECMG BKN020 BKN050
07:00
V
8 °C 10 km+ - 300° 300° 2 kt METAR LFBC 300500Z AUTO 30002KT 9999 //////TCU 08/08 Q1011 TEMPO 2000 BR BECMG BKN020 BKN050
06:30
V
9 °C 10 km+ - Var Var 2 kt METAR LFBC 300430Z AUTO VRB02KT CAVOK 09/09 Q1011 TEMPO 2000 BR
06:00
V
9 °C 10 km+ - 320° 320° 2 kt METAR LFBC 300400Z AUTO 32002KT CAVOK 09/09 Q1010 TEMPO 2000 BR
05:30
V
9 °C 10 km+ - Var 000° 0 kt METAR LFBC 300330Z AUTO 00000KT CAVOK 09/09 Q1010 TEMPO 2000 BR
05:00
V
10 °C 10 km+ - 310° 310° 1 kt METAR LFBC 300300Z AUTO 31001KT CAVOK 10/09 Q1010 TEMPO 2000 BR
04:30
V
9 °C 10 km+ - Var Var 1 kt METAR LFBC 300230Z AUTO VRB01KT CAVOK 09/09 Q1009 TEMPO 2000 BR
04:00
L
10 °C 1 km - Var 000° 0 kt METAR LFBC 300200Z AUTO 00000KT 9000 1000 R24/P2000 //////CB 10/09 Q1009 BECMG SCT035 BKN070
03:30
V
10 °C 10 km+ 8.000 ft Var 000° 0 kt METAR LFBC 300130Z AUTO 00000KT 9999 FEW028/// OVC080/// //////TCU 10/10 Q1009 BECMG SCT035 BKN070
03:00
V
10 °C 10 km+ 7.800 ft 330° 330° 1 kt METAR LFBC 300100Z AUTO 33001KT 9999 FEW030 BKN078 10/09 Q1009 NOSIG
02:30
L
10 °C 1 km - 100° 100° 1 kt METAR LFBC 300030Z AUTO 10001KT 9999 1000 R24/1400U ///TCU 10/09 Q1009 BECMG SCT035 BKN070
02:00
V
10 °C 10 km+ 7.400 ft Var 000° 0 kt METAR LFBC 300000Z AUTO 00000KT 9999 FEW027/// BKN074/// BKN140/// //////CB 10/09 Q1009 TEMPO 33010KT 4000 SHRA BECMG SCT035 BKN070
01:30
V
12 °C 10 km+ - Var 000° 0 kt METAR LFBC 292330Z AUTO 00000KT 9999 FEW044/// ///CB 12/10 Q1009 TEMPO 33010KT 4000 SHRA BECMG SCT035 BKN070
01:00
V
13 °C 10 km+ 5.000 ft Var Var 3 kt METAR LFBC 292300Z AUTO VRB03KT 9999 SCT044/// BKN050/// BKN064/// ///CB 13/10 Q1009 TEMPO 4000 SHRA
00:30
V
13 °C 10 km+ 3.700 ft 280° 280° 5 kt METAR LFBC 292230Z AUTO 28005KT 250V330 9999 FEW028/// BKN037/// BKN045/// //////CB 13/11 Q1009 TEMPO 4000 SHRA
00:00
V
11 °C 10 km+ 4.500 ft Var 000° 0 kt METAR LFBC 292200Z AUTO 00000KT 9999 SCT030/// BKN045/// BKN058/// //////CB 11/10 Q1008 TEMPO 4000 SHRA BECMG 33010KT

29 settembre 2022

Tempo Codice Tempo metereologico Temp. Vista Base nuvolosa Vento METAR/SPECI
23:30
V
11 °C 10 km+ - 300° 300° 2 kt METAR LFBC 292130Z AUTO 30002KT 9999 //////CB 11/10 Q1008 TEMPO 4000 SHRA
23:00
V
12 °C 10 km+ 7.600 ft Var Var 1 kt METAR LFBC 292100Z AUTO VRB01KT 9999 FEW045/// SCT066/// BKN076/// ///CB 12/09 Q1008 TEMPO 4000 SHRA
22:30
V
12 °C 10 km+ 13.000 ft 320° 320° 3 kt METAR LFBC 292030Z AUTO 32003KT 9999 FEW039 SCT045 BKN130 12/09 Q1008 TEMPO 4000 SHRA BKN020CB BKN050
22:00
V
12 °C 10 km+ - 340° 340° 3 kt METAR LFBC 292000Z AUTO 34003KT CAVOK 12/09 Q1008 TEMPO 4000 SHRA BKN020CB BKN030
21:30
V
13 °C 10 km+ - 330° 330° 5 kt METAR LFBC 291930Z AUTO 33005KT 9999 FEW030 13/09 Q1007 TEMPO 4000 SHRA BKN020CB BKN030
21:00
V
13 °C 10 km+ - 340° 340° 5 kt METAR LFBC 291900Z AUTO 34005KT CAVOK 13/10 Q1007 TEMPO 4000 SHRA BKN020CB BKN030
20:30
V
13 °C 10 km+ - 330° 330° 5 kt METAR LFBC 291830Z AUTO 33005KT 9999 FEW030 13/10 Q1006 TEMPO 4000 SHRA BKN020CB BKN030
20:00
V
13 °C 10 km+ - 320° 320° 5 kt METAR LFBC 291800Z AUTO 32005KT CAVOK 13/10 Q1006 TEMPO 4000 SHRA BKN020CB BKN030
19:30
V
14 °C 10 km+ - 330° 330° 5 kt METAR LFBC 291730Z AUTO 33005KT CAVOK 14/10 Q1006 TEMPO 4000 SHRA BKN020CB BKN030
19:00
V
15 °C 10 km+ - 330° 330° 7 kt METAR LFBC 291700Z AUTO 33007KT 9999 ///TCU 15/10 Q1005 TEMPO 4000 SHRA BKN020CB BKN030
18:30
V
15 °C 10 km+ - 330° 330° 6 kt METAR LFBC 291630Z AUTO 33006KT 300V360 CAVOK 15/10 Q1005 TEMPO 4000 SHRA BKN020CB BKN030
18:00
V
16 °C 10 km+ - 340° 340° 7 kt METAR LFBC 291600Z AUTO 34007KT 310V010 9999 //////TCU 16/11 Q1005 TEMPO 4000 SHRA SCT025CB
17:30
V
16 °C 10 km+ - 330° 330° 6 kt METAR LFBC 291530Z AUTO 33006KT 9999 //////TCU 16/12 Q1004 TEMPO 4000 SHRA SCT025CB
17:00
V
15 °C 10 km+ 5.600 ft 310° 310° 5 kt METAR LFBC 291500Z AUTO 31005KT 9999 FEW023 SCT038 OVC056 15/13 Q1004 TEMPO 4000 SHRA SCT025CB
Dati più vecchi

Noi e le terze parti seguiamo il tuo comportamento in internet sul nostro sito web con i cookie. Se continui, riteniamo che tu sia d'accordo con la nostra politica sui cookie. Per saperne di più